createdAt,value
2022-12-27T00:01:27.591Z,101464.34
2022-12-27T00:03:58.209Z,101461.22
2022-12-27T00:06:31.533Z,101458.09
2022-12-27T00:09:04.161Z,101464.53
2022-12-27T00:11:35.536Z,101449.41
2022-12-27T00:14:07.621Z,101456.66
2022-12-27T00:16:38.368Z,101451.06
2022-12-27T00:19:09.229Z,101446.28
2022-12-27T00:21:41.376Z,101441.84
2022-12-27T00:24:12.645Z,101470.63
2022-12-27T00:26:42.741Z,101477.38
2022-12-27T00:29:13.379Z,101486.03
2022-12-27T00:31:43.009Z,101477.19
2022-12-27T00:34:13.519Z,101470.75
2022-12-27T00:36:45.828Z,101475.81
2022-12-27T00:39:16.134Z,101485.69
2022-12-27T00:41:46.487Z,101486.00
2022-12-27T00:44:16.247Z,101490.25
2022-12-27T00:46:46.833Z,101489.78
2022-12-27T00:49:17.201Z,101485.31
2022-12-27T00:51:48.913Z,101497.94
2022-12-27T00:54:19.571Z,101496.31
2022-12-27T00:56:49.375Z,101500.25
2022-12-27T00:59:19.773Z,101500.25
2022-12-27T01:01:50.310Z,101503.03
2022-12-27T01:04:20.757Z,101509.78
2022-12-27T01:06:52.589Z,101507.25
2022-12-27T01:09:23.035Z,101511.22
2022-12-27T01:11:53.034Z,101508.19
2022-12-27T01:14:23.670Z,101500.47
2022-12-27T01:16:54.143Z,101502.13
2022-12-27T01:19:24.004Z,101497.69
2022-12-27T01:21:56.391Z,101495.19
2022-12-27T01:24:27.170Z,101486.31
2022-12-27T01:26:57.432Z,101491.06
2022-12-27T01:29:28.249Z,101489.41
2022-12-27T01:31:58.160Z,101483.03
2022-12-27T01:34:28.616Z,101494.50
2022-12-27T01:37:00.543Z,101485.31
2022-12-27T01:39:30.624Z,101492.88
2022-12-27T01:42:17.203Z,101487.28
2022-12-27T01:45:01.407Z,101493.16
2022-12-27T01:47:53.547Z,101499.88
2022-12-27T01:50:34.760Z,101490.06
2022-12-27T01:53:15.997Z,101480.53
2022-12-27T01:55:51.304Z,101479.38
2022-12-27T01:58:29.595Z,101486.63
2022-12-27T02:01:00.932Z,101484.97
2022-12-27T02:03:35.784Z,101482.19
2022-12-27T02:06:10.285Z,101476.59
2022-12-27T02:08:54.648Z,101474.66
2022-12-27T02:11:44.155Z,101481.38
2022-12-27T02:14:15.629Z,101478.06
2022-12-27T02:16:45.791Z,101471.66
2022-12-27T02:19:38.545Z,101488.09
2022-12-27T02:23:19.805Z,101483.13
2022-12-27T02:26:34.613Z,101478.00
2022-12-27T02:29:41.210Z,101479.97
2022-12-27T02:32:18.696Z,101477.19
2022-12-27T02:35:02.136Z,101492.78
2022-12-27T02:37:36.619Z,101484.09
2022-12-27T02:40:28.740Z,101484.09
2022-12-27T02:43:16.396Z,101498.91
2022-12-27T02:46:19.876Z,101499.69
2022-12-27T02:49:13.560Z,101516.13
2022-12-27T02:52:19.649Z,101526.16
2022-12-27T02:55:29.399Z,101535.69
2022-12-27T02:58:23.464Z,101536.53
2022-12-27T03:01:29.465Z,101534.53
2022-12-27T03:04:23.769Z,101535.38
2022-12-27T03:07:31.699Z,101551.28
2022-12-27T03:10:45.948Z,101554.09
2022-12-27T03:13:45.996Z,101557.22
2022-12-27T03:16:27.023Z,101546.03
2022-12-27T03:19:09.886Z,101546.84
2022-12-27T03:22:02.383Z,101554.41
2022-12-27T03:24:55.197Z,101553.59
2022-12-27T03:27:34.279Z,101555.88
2022-12-27T03:30:32.710Z,101557.53
2022-12-27T03:33:15.709Z,101574.28
2022-12-27T03:36:05.884Z,101559.81
2022-12-27T03:38:43.695Z,101567.03
2022-12-27T03:41:46.192Z,101574.59
2022-12-27T03:44:26.693Z,101576.03
2022-12-27T03:46:59.640Z,101577.69
2022-12-27T03:49:38.154Z,101586.06
2022-12-27T03:52:18.339Z,101591.66
2022-12-27T03:54:52.868Z,101588.88
2022-12-27T03:57:27.067Z,101588.06
2022-12-27T03:59:57.604Z,101589.19
2022-12-27T04:02:28.521Z,101601.16
2022-12-27T04:05:00.858Z,101605.09
2022-12-27T04:07:30.713Z,101603.16
2022-12-27T04:10:17.596Z,101591.16
2022-12-27T04:13:04.769Z,101609.03
2022-12-27T04:15:52.660Z,101621.34
2022-12-27T04:18:39.419Z,101632.50
2022-12-27T04:21:28.105Z,101628.91
2022-12-27T04:24:15.079Z,101639.22
2022-12-27T04:27:02.072Z,101646.78
2022-12-27T04:29:49.051Z,101646.78
2022-12-27T04:32:36.191Z,101648.78
2022-12-27T04:35:07.130Z,101657.16
2022-12-27T04:37:39.415Z,101658.78
2022-12-27T04:40:39.550Z,101667.16
2022-12-27T04:43:28.102Z,101671.91
2022-12-27T04:46:15.034Z,101672.25
2022-12-27T04:49:02.237Z,101673.06
2022-12-27T04:51:49.136Z,101671.41
2022-12-27T04:54:41.116Z,101681.44
2022-12-27T04:57:11.265Z,101683.41
2022-12-27T04:59:58.278Z,101677.81
2022-12-27T05:02:29.027Z,101690.66
2022-12-27T05:04:59.371Z,101690.31
2022-12-27T05:07:46.076Z,101688.34
2022-12-27T05:10:34.703Z,101698.69
2022-12-27T05:13:21.300Z,101694.25
2022-12-27T05:15:52.032Z,101709.88
2022-12-27T05:18:22.434Z,101697.56
2022-12-27T05:20:52.795Z,101697.25
2022-12-27T05:23:42.370Z,101703.34
2022-12-27T05:26:20.133Z,101708.63
2022-12-27T05:28:50.671Z,101707.19
2022-12-27T05:31:21.674Z,101713.25
2022-12-27T05:33:53.175Z,101717.41
2022-12-27T05:36:24.188Z,101721.53
2022-12-27T05:38:54.985Z,101725.66
2022-12-27T05:41:27.961Z,101730.63
2022-12-27T05:44:02.134Z,101719.16
2022-12-27T05:46:37.497Z,101724.13
2022-12-27T05:49:07.467Z,101730.72
2022-12-27T05:51:37.813Z,101726.53
2022-12-27T05:54:08.428Z,101730.31
2022-12-27T05:56:40.180Z,101733.31
2022-12-27T05:59:10.160Z,101722.34
2022-12-27T06:01:40.136Z,101735.69
2022-12-27T06:04:11.940Z,101739.50
2022-12-27T06:06:42.346Z,101730.81
2022-12-27T06:09:13.217Z,101734.94
2022-12-27T06:11:45.745Z,101751.91
2022-12-27T06:14:15.470Z,101749.84
2022-12-27T06:16:45.760Z,101743.78
2022-12-27T06:19:15.807Z,101755.88
2022-12-27T06:21:46.326Z,101761.13
2022-12-27T06:24:17.073Z,101763.25
2022-12-27T06:26:49.376Z,101770.00
2022-12-27T06:29:20.117Z,101776.50
2022-12-27T06:31:49.973Z,101784.69
2022-12-27T06:34:19.976Z,101786.75
2022-12-27T06:36:51.235Z,101788.53
2022-12-27T06:39:22.360Z,101788.44
2022-12-27T06:41:55.662Z,101788.81
2022-12-27T06:44:25.875Z,101785.78
2022-12-27T06:46:56.759Z,101785.97
2022-12-27T06:49:27.072Z,101800.81
2022-12-27T06:51:59.759Z,101805.94
2022-12-27T06:54:31.432Z,101811.53
2022-12-27T06:57:03.282Z,101807.88
2022-12-27T06:59:33.265Z,101795.81
2022-12-27T07:02:03.799Z,101802.22
2022-12-27T07:04:34.276Z,101817.41
2022-12-27T07:07:04.070Z,101828.22
2022-12-27T07:09:33.990Z,101834.59
2022-12-27T07:12:06.746Z,101835.81
2022-12-27T07:14:37.166Z,101824.50
2022-12-27T07:17:07.004Z,101829.34
2022-12-27T07:19:37.357Z,101827.69
2022-12-27T07:22:07.511Z,101837.78
2022-12-27T07:24:37.926Z,101842.25
2022-12-27T07:27:09.638Z,101838.69
2022-12-27T07:29:45.290Z,101832.69
2022-12-27T07:32:15.654Z,101837.53
2022-12-27T07:34:45.386Z,101840.72
2022-12-27T07:37:15.920Z,101837.78
2022-12-27T07:39:45.809Z,101841.19
2022-12-27T07:42:17.690Z,101840.22
2022-12-27T07:44:47.451Z,101843.16
2022-12-27T07:47:17.695Z,101848.19
2022-12-27T07:49:48.008Z,101844.31
2022-12-27T07:52:18.424Z,101840.13
2022-12-27T07:54:48.717Z,101849.66
2022-12-27T07:57:21.291Z,101838.53
2022-12-27T07:59:51.695Z,101833.81
2022-12-27T08:02:21.730Z,101829.50
2022-12-27T08:04:52.085Z,101828.38
2022-12-27T08:07:23.435Z,101823.13
2022-12-27T08:09:54.003Z,101828.75
2022-12-27T08:12:26.445Z,101827.13
2022-12-27T08:14:56.165Z,101817.81
2022-12-27T08:17:29.734Z,101831.63
2022-12-27T08:19:59.859Z,101827.63
2022-12-27T08:22:30.199Z,101838.63
2022-12-27T08:25:00.633Z,101829.75
2022-12-27T08:27:32.592Z,101835.41
2022-12-27T08:30:02.940Z,101817.94
2022-12-27T08:32:33.215Z,101826.84
2022-12-27T08:35:25.293Z,101821.91
2022-12-27T08:37:53.626Z,101812.53
2022-12-27T08:40:23.844Z,101820.22
2022-12-27T08:42:56.132Z,101816.06
2022-12-27T08:45:25.814Z,101806.06
2022-12-27T08:48:00.623Z,101811.78
2022-12-27T08:50:31.521Z,101802.34
2022-12-27T08:53:03.667Z,101807.94
2022-12-27T08:55:34.944Z,101816.75
2022-12-27T08:58:15.681Z,101807.59
2022-12-27T09:00:48.800Z,101802.94
2022-12-27T09:03:22.758Z,101801.06
2022-12-27T09:05:53.201Z,101786.53
2022-12-27T09:08:23.197Z,101785.81
2022-12-27T09:10:53.393Z,101784.69
2022-12-27T09:13:25.497Z,101780.28
2022-12-27T09:15:55.630Z,101778.69
2022-12-27T09:18:25.551Z,101777.44
2022-12-27T09:20:55.790Z,101771.75
2022-12-27T09:23:25.656Z,101779.06
2022-12-27T09:25:55.572Z,101781.47
2022-12-27T09:28:28.393Z,101771.31
2022-12-27T09:30:59.034Z,101779.38
2022-12-27T09:33:29.857Z,101785.50
2022-12-27T09:36:06.740Z,101777.47
2022-12-27T09:38:37.917Z,101777.22
2022-12-27T09:42:11.688Z,101768.28
2022-12-27T09:44:20.578Z,101776.59
2022-12-27T09:46:59.168Z,101776.81
2022-12-27T09:49:40.066Z,101774.09
2022-12-27T09:52:19.336Z,101765.25
2022-12-27T09:55:05.211Z,101764.06
2022-12-27T09:57:42.206Z,101766.53
2022-12-27T10:00:32.386Z,101756.75
2022-12-27T10:03:08.673Z,101766.81
2022-12-27T10:05:42.390Z,101758.78
2022-12-27T10:08:38.411Z,101764.41
2022-12-27T10:11:35.937Z,101761.91
2022-12-27T10:14:20.809Z,101763.34
2022-12-27T10:17:04.176Z,101760.47
2022-12-27T10:19:48.957Z,101755.22
2022-12-27T10:22:34.799Z,101749.59
2022-12-27T10:25:13.890Z,101744.34
2022-12-27T10:27:44.738Z,101749.97
2022-12-27T10:30:21.001Z,101757.25
2022-12-27T10:32:54.126Z,101748.81
2022-12-27T10:35:27.128Z,101744.81
2022-12-27T10:37:57.496Z,101752.91
2022-12-27T10:40:40.701Z,101751.81
2022-12-27T10:43:23.199Z,101751.81
2022-12-27T10:45:53.495Z,101754.72
2022-12-27T10:48:32.216Z,101749.53
2022-12-27T10:51:14.238Z,101735.88
2022-12-27T10:54:02.647Z,101742.44
2022-12-27T10:56:36.068Z,101745.69
2022-12-27T10:59:17.682Z,101757.47
2022-12-27T11:01:50.451Z,101747.50
2022-12-27T11:04:25.651Z,101753.66
2022-12-27T11:07:16.120Z,101751.41
2022-12-27T11:09:51.212Z,101763.22
2022-12-27T11:12:24.911Z,101760.63
2022-12-27T11:15:02.084Z,101759.53
2022-12-27T11:17:40.222Z,101756.09
2022-12-27T11:20:24.930Z,101757.44
2022-12-27T11:22:58.689Z,101758.34
2022-12-27T11:25:31.950Z,101747.94
2022-12-27T11:28:06.590Z,101759.41
2022-12-27T11:30:42.727Z,101753.97
2022-12-27T11:33:30.242Z,101750.22
2022-12-27T11:36:03.867Z,101746.06
2022-12-27T11:38:37.010Z,101751.56
2022-12-27T11:41:14.601Z,101764.31
2022-12-27T11:43:53.784Z,101761.34
2022-12-27T11:46:33.040Z,101767.31
2022-12-27T11:49:06.534Z,101766.34
2022-12-27T11:52:46.003Z,101770.19
2022-12-27T11:55:55.159Z,101769.88
2022-12-27T11:58:54.193Z,101775.03
2022-12-27T12:02:09.393Z,101763.16
2022-12-27T12:05:17.023Z,101771.44
2022-12-27T12:08:17.103Z,101776.06
2022-12-27T12:11:02.445Z,101776.72
2022-12-27T12:14:09.567Z,101779.34
2022-12-27T12:17:17.451Z,101787.66
2022-12-27T12:20:09.793Z,101785.19
2022-12-27T12:23:05.374Z,101784.69
2022-12-27T12:26:12.828Z,101773.31
2022-12-27T12:29:13.304Z,101778.06
2022-12-27T12:32:18.524Z,101787.19
2022-12-27T12:35:26.358Z,101791.00
2022-12-27T12:38:20.559Z,101794.47
2022-12-27T12:41:29.670Z,101797.94
2022-12-27T12:44:45.590Z,101792.53
2022-12-27T12:47:56.244Z,101796.66
2022-12-27T12:50:53.056Z,101807.38
2022-12-27T12:53:50.523Z,101801.31
2022-12-27T12:56:56.654Z,101805.94
2022-12-27T13:00:02.042Z,101807.09
2022-12-27T13:03:24.550Z,101816.16
2022-12-27T13:06:07.262Z,101808.94
2022-12-27T13:08:47.502Z,101814.53
2022-12-27T13:11:35.827Z,101817.66
2022-12-27T13:14:30.021Z,101819.97
2022-12-27T13:17:17.978Z,101815.53
2022-12-27T13:20:08.541Z,101818.66
2022-12-27T13:22:56.287Z,101817.34
2022-12-27T13:25:41.239Z,101826.94
2022-12-27T13:28:38.571Z,101827.56
2022-12-27T13:31:25.048Z,101828.56
2022-12-27T13:34:10.401Z,101825.56
2022-12-27T13:37:06.617Z,101826.22
2022-12-27T13:40:00.001Z,101828.56
2022-12-27T13:43:01.878Z,101828.88
2022-12-27T13:45:58.672Z,101837.13
2022-12-27T13:49:10.037Z,101828.22
2022-12-27T13:51:48.823Z,101834.16
2022-12-27T13:55:15.308Z,101833.66
2022-12-27T13:58:23.414Z,101843.22
2022-12-27T14:01:23.623Z,101844.72
2022-12-27T14:04:26.731Z,101843.75
2022-12-27T14:07:27.444Z,101846.06
2022-12-27T14:10:31.577Z,101847.50
2022-12-27T14:13:04.103Z,101848.69
2022-12-27T14:16:30.373Z,101856.25
2022-12-27T14:19:47.610Z,101862.53
2022-12-27T14:22:54.585Z,101861.72
2022-12-27T14:26:15.291Z,101865.66
2022-12-27T14:29:43.582Z,101860.69
2022-12-27T14:33:09.127Z,101865.00
2022-12-27T14:36:17.535Z,101867.28
2022-12-27T14:39:33.322Z,101873.25
2022-12-27T14:43:01.350Z,101874.41
2022-12-27T14:46:09.799Z,101879.00
2022-12-27T14:49:28.847Z,101891.38
2022-12-27T14:52:44.133Z,101900.13
2022-12-27T14:55:59.404Z,101892.69
2022-12-27T14:59:03.797Z,101901.44
2022-12-27T15:02:01.049Z,101902.91
2022-12-27T15:05:02.325Z,101904.38
2022-12-27T15:08:02.503Z,101919.88
2022-12-27T15:11:03.584Z,101921.34
2022-12-27T15:13:57.896Z,101910.47
2022-12-27T15:16:45.300Z,101921.97
2022-12-27T15:19:48.012Z,101932.34
2022-12-27T15:22:33.581Z,101931.84
2022-12-27T15:25:21.702Z,101930.19
2022-12-27T15:28:08.005Z,101941.75
2022-12-27T15:30:52.472Z,101942.38
2022-12-27T15:33:36.301Z,101947.16
2022-12-27T15:36:16.138Z,101945.50
2022-12-27T15:38:53.892Z,101949.47
2022-12-27T15:41:56.813Z,101959.03
2022-12-27T15:44:51.918Z,101964.44
2022-12-27T15:47:51.259Z,101970.34
2022-12-27T15:50:40.869Z,101969.88
2022-12-27T15:54:26.724Z,101975.59
2022-12-27T15:57:39.230Z,101973.13
2022-12-27T16:00:19.550Z,101988.28
2022-12-27T16:02:59.498Z,101991.41
2022-12-27T16:05:52.793Z,101993.38
2022-12-27T16:08:40.511Z,101998.19
2022-12-27T16:11:14.795Z,102006.88
2022-12-27T16:13:52.248Z,102006.38
2022-12-27T16:17:07.439Z,102005.03
2022-12-27T16:20:16.938Z,102017.72
2022-12-27T16:22:54.885Z,102011.94
2022-12-27T16:25:35.049Z,102019.50
2022-12-27T16:28:10.028Z,102015.88
2022-12-27T16:30:47.471Z,102017.03
2022-12-27T16:33:39.948Z,102027.41
2022-12-27T16:36:26.576Z,102025.25
2022-12-27T16:39:33.210Z,102024.72
2022-12-27T16:42:09.938Z,102030.31
2022-12-27T16:44:55.621Z,102033.47
2022-12-27T16:47:51.266Z,102039.06
2022-12-27T16:50:44.996Z,102044.97
2022-12-27T16:53:52.918Z,102048.09
2022-12-27T16:56:26.422Z,102049.25
2022-12-27T16:58:57.164Z,102044.78
2022-12-27T17:02:00.763Z,102044.78
2022-12-27T17:05:00.487Z,102056.31
2022-12-27T17:08:20.544Z,102056.13
2022-12-27T17:11:26.940Z,102062.00
2022-12-27T17:14:03.279Z,102065.97
2022-12-27T17:16:44.813Z,102068.75
2022-12-27T17:19:24.005Z,102065.97
2022-12-27T17:22:03.604Z,102060.34
2022-12-27T17:24:36.830Z,102074.38
2022-12-27T17:27:21.056Z,102071.56
2022-12-27T17:30:17.558Z,102086.75
2022-12-27T17:33:28.796Z,102081.44
2022-12-27T17:36:25.733Z,102076.97
2022-12-27T17:39:18.185Z,102080.63
2022-12-27T17:42:20.648Z,102091.81
2022-12-27T17:45:13.210Z,102090.97
2022-12-27T17:48:09.739Z,102085.38
2022-12-27T17:50:44.959Z,102091.81
2022-12-27T17:53:47.783Z,102085.91
2022-12-27T17:56:40.556Z,102094.63
2022-12-27T17:59:17.297Z,102096.59
2022-12-27T18:01:52.838Z,102092.63
2022-12-27T18:04:28.924Z,102101.03
2022-12-27T18:07:01.846Z,102095.44
2022-12-27T18:09:43.313Z,102097.44
2022-12-27T18:12:20.829Z,102101.38
2022-12-27T18:15:02.780Z,102101.38
2022-12-27T18:17:40.647Z,102097.72
2022-12-27T18:20:36.769Z,102099.19
2022-12-27T18:23:24.673Z,102096.38
2022-12-27T18:26:00.209Z,102099.50
2022-12-27T18:28:34.238Z,102101.47
2022-12-27T18:31:16.955Z,102095.38
2022-12-27T18:33:53.382Z,102097.63
2022-12-27T18:36:31.053Z,102099.59
2022-12-27T18:39:05.030Z,102101.56
2022-12-27T18:41:43.422Z,102094.31
2022-12-27T18:44:26.516Z,102103.03
2022-12-27T18:47:05.033Z,102097.44
2022-12-27T18:49:38.375Z,102105.31
2022-12-27T18:52:16.873Z,102104.16
2022-12-27T18:54:47.240Z,102105.63
2022-12-27T18:57:38.367Z,102100.31
2022-12-27T19:00:25.036Z,102101.78
2022-12-27T19:03:15.719Z,102109.66
2022-12-27T19:06:06.675Z,102102.41
2022-12-27T19:08:41.451Z,102108.84
2022-12-27T19:11:22.753Z,102107.19
2022-12-27T19:13:56.269Z,102111.66
2022-12-27T19:16:30.851Z,102116.94
2022-12-27T19:19:12.707Z,102121.72
2022-12-27T19:21:43.639Z,102114.47
2022-12-27T19:24:34.426Z,102122.00
2022-12-27T19:27:25.578Z,102119.84
2022-12-27T19:29:55.934Z,102118.19
2022-12-27T19:32:36.748Z,102119.00
2022-12-27T19:35:09.979Z,102122.66
2022-12-27T19:37:40.451Z,102128.25
2022-12-27T19:40:17.114Z,102110.28
2022-12-27T19:42:47.070Z,102121.50
2022-12-27T19:45:17.906Z,102117.88
2022-12-27T19:47:49.536Z,102124.00
2022-12-27T19:50:21.505Z,102122.00
2022-12-27T19:52:52.748Z,102121.19
2022-12-27T19:55:29.416Z,102123.16
2022-12-27T19:57:59.647Z,102116.75
2022-12-27T20:00:30.016Z,102119.84
2022-12-27T20:03:00.408Z,102115.41
2022-12-27T20:06:13.723Z,102121.81
2022-12-27T20:08:28.504Z,102121.00
2022-12-27T20:10:59.945Z,102126.06
2022-12-27T20:13:31.392Z,102124.94
2022-12-27T20:16:02.970Z,102117.69
2022-12-27T20:18:33.463Z,102118.50
2022-12-27T20:21:05.985Z,102120.47
2022-12-27T20:23:36.677Z,102123.28
2022-12-27T20:26:06.853Z,102124.41
2022-12-27T20:28:37.265Z,102123.56
2022-12-27T20:31:11.506Z,102124.75
2022-12-27T20:33:42.278Z,102132.63
2022-12-27T20:36:15.097Z,102123.38
2022-12-27T20:38:45.555Z,102125.69
2022-12-27T20:41:19.245Z,102121.22
2022-12-27T20:43:49.824Z,102128.25
2022-12-27T20:46:21.443Z,102126.59
2022-12-27T20:48:53.012Z,102116.56
2022-12-27T20:51:27.676Z,102134.50
2022-12-27T20:53:59.602Z,102131.97
2022-12-27T20:56:30.305Z,102130.63
2022-12-27T20:59:00.140Z,102130.13
2022-12-27T21:01:30.226Z,102126.50
2022-12-27T21:04:00.566Z,102128.78
2022-12-27T21:06:33.084Z,102130.22
2022-12-27T21:09:03.367Z,102131.97
2022-12-27T21:11:34.640Z,102125.03
2022-12-27T21:14:06.829Z,102122.03
2022-12-27T21:16:39.044Z,102120.69
2022-12-27T21:19:10.130Z,102119.66
2022-12-27T21:21:42.381Z,102115.19
2022-12-27T21:24:13.205Z,102110.19
2022-12-27T21:26:43.628Z,102115.31
2022-12-27T21:29:16.617Z,102110.00
2022-12-27T21:31:46.999Z,102108.66
2022-12-27T21:34:17.716Z,102111.47
2022-12-27T21:36:52.654Z,102108.13
2022-12-27T21:39:23.476Z,102110.94
2022-12-27T21:41:53.627Z,102112.34
2022-12-27T21:44:25.761Z,102104.28
2022-12-27T21:46:55.463Z,102100.97
2022-12-27T21:49:25.654Z,102111.63
2022-12-27T21:51:57.768Z,102106.34
2022-12-27T21:54:28.078Z,102111.09
2022-12-27T21:56:57.752Z,102109.75
2022-12-27T21:59:28.403Z,102114.00
2022-12-27T22:01:58.830Z,102111.00
2022-12-27T22:04:29.628Z,102112.94
2022-12-27T22:07:01.170Z,102103.22
2022-12-27T22:09:31.149Z,102099.88
2022-12-27T22:12:01.064Z,102106.94
2022-12-27T22:14:36.617Z,102108.38
2022-12-27T22:17:07.494Z,102113.44
2022-12-27T22:19:37.289Z,102110.13
2022-12-27T22:22:09.606Z,102113.25
2022-12-27T22:24:39.394Z,102107.94
2022-12-27T22:27:09.383Z,102104.63
2022-12-27T22:29:39.421Z,102108.84
2022-12-27T22:32:09.725Z,102098.00
2022-12-27T22:34:40.227Z,102102.53
2022-12-27T22:37:12.616Z,102104.50
2022-12-27T22:39:42.579Z,102098.69
2022-12-27T22:42:12.953Z,102100.66
2022-12-27T22:44:44.249Z,102111.00
2022-12-27T22:47:29.414Z,102106.25
2022-12-27T22:49:59.849Z,102108.22
2022-12-27T22:52:31.779Z,102106.25
2022-12-27T22:55:05.114Z,102108.50
2022-12-27T22:57:37.632Z,102116.38
2022-12-27T23:00:12.584Z,102108.59
2022-12-27T23:02:43.190Z,102117.59
2022-12-27T23:05:13.113Z,102114.56
2022-12-27T23:08:04.313Z,102113.75
2022-12-27T23:10:35.801Z,102110.44
2022-12-27T23:13:06.140Z,102111.56
2022-12-27T23:15:36.687Z,102107.13
2022-12-27T23:18:07.838Z,102113.53
2022-12-27T23:20:38.554Z,102116.63
2022-12-27T23:23:30.494Z,102112.16
2022-12-27T23:26:06.480Z,102112.16
2022-12-27T23:28:39.144Z,102108.25
2022-12-27T23:31:11.494Z,102106.91
2022-12-27T23:33:42.943Z,102108.03
2022-12-27T23:36:14.743Z,102111.13
2022-12-27T23:38:48.084Z,102115.06
2022-12-27T23:41:20.982Z,102112.28
2022-12-27T23:43:53.938Z,102110.28
2022-12-27T23:46:27.807Z,102116.72
2022-12-27T23:48:59.531Z,102111.13
2022-12-27T23:51:31.192Z,102113.63
2022-12-27T23:54:04.079Z,102116.09
2022-12-27T23:56:36.114Z,102110.22
2022-12-27T23:59:09.869Z,102111.03
